Time;durP1;ratioP1;P1;durP2;ratioP2;P2;SDS_P1;SDS_P2;PMS_P1;PMS_P2;Temp;Humidity;BMP_temperature;BMP_pressure;BME280_temperature;BME280_humidity;BME280_pressure;Samples;Min_cycle;Max_cycle;Signal;HPM_P1;HPM_P2
2022/05/21 00:01:35;;;;;;;6.70;4.40;;;15.30;99.70;;;;;;5030866;28;20029;-70
2022/05/21 00:04:01;;;;;;;10.82;5.15;;;15.40;99.80;;;;;;5030974;28;20399;-71
2022/05/21 00:06:33;;;;;;;8.68;4.90;;;15.40;99.80;;;;;;5030216;28;20025;-71
2022/05/21 00:08:59;;;;;;;8.77;4.90;;;15.40;99.80;;;;;;5029573;28;20044;-72
2022/05/21 00:11:24;;;;;;;6.05;4.40;;;15.30;99.90;;;;;;5030881;28;20030;-72
2022/05/21 00:13:50;;;;;;;10.35;4.90;;;15.30;99.90;;;;;;5030709;28;20069;-71
2022/05/21 00:16:23;;;;;;;10.57;5.28;;;15.20;99.90;;;;;;5030478;28;20056;-71
2022/05/21 00:18:49;;;;;;;6.93;4.07;;;15.10;99.90;;;;;;5030019;28;20026;-72
2022/05/21 00:21:20;;;;;;;11.13;2.75;;;15.20;99.90;;;;;;5029782;28;20025;-71
2022/05/21 00:23:46;;;;;;;5.82;2.15;;;15.00;99.90;;;;;;5031105;28;20073;-71
2022/05/21 00:26:21;;;;;;;3.40;1.50;;;14.90;99.90;;;;;;5030622;28;20041;-71
2022/05/21 00:28:49;;;;;;;2.75;1.52;;;14.80;99.60;;;;;;5029374;28;20033;-70
2022/05/21 00:31:23;;;;;;;4.57;1.73;;;14.80;99.50;;;;;;5030387;28;20025;-71
2022/05/21 00:33:50;;;;;;;3.63;1.70;;;14.70;99.80;;;;;;5030609;28;20135;-72
2022/05/21 00:36:24;;;;;;;2.92;1.83;;;14.70;99.90;;;;;;5030713;28;20339;-71
2022/05/21 00:38:50;;;;;;;2.20;1.98;;;14.70;99.90;;;;;;5029403;28;20034;-70
2022/05/21 00:41:28;;;;;;;7.50;2.75;;;14.70;99.90;;;;;;5029842;28;20052;-72
2022/05/21 00:43:56;;;;;;;;;;;14.70;99.90;;;;;;5030625;28;20113;-71
2022/05/21 00:46:39;;;;;;;4.97;2.67;;;14.60;99.90;;;;;;5030154;28;20000;-71
2022/05/21 00:49:20;;;;;;;3.42;2.30;;;14.60;99.90;;;;;;5030408;28;20038;-72
2022/05/21 00:51:53;;;;;;;5.05;3.03;;;14.70;99.90;;;;;;5029057;28;20029;-72
2022/05/21 00:54:23;;;;;;;3.92;2.50;;;14.70;99.90;;;;;;5030751;28;20029;-72
2022/05/21 00:57:05;;;;;;;4.35;2.75;;;14.70;99.90;;;;;;5030560;28;20076;-69
2022/05/21 00:59:50;;;;;;;3.47;2.60;;;14.70;99.90;;;;;;5030086;28;20106;-71
2022/05/21 01:02:24;;;;;;;3.85;2.83;;;14.70;99.90;;;;;;5030105;28;20044;-71
2022/05/21 01:04:49;;;;;;;5.95;2.83;;;14.90;99.90;;;;;;5029186;28;20025;-72
2022/05/21 01:07:16;;;;;;;6.13;2.95;;;14.90;99.90;;;;;;5030280;28;20025;-71
2022/05/21 01:09:50;;;;;;;5.53;3.50;;;14.80;99.90;;;;;;5030305;28;20036;-72
2022/05/21 01:12:16;;;;;;;4.93;2.42;;;14.80;99.90;;;;;;5030287;28;20025;-71
2022/05/21 01:14:42;;;;;;;8.40;3.42;;;14.80;99.60;;;;;;5029791;28;20554;-71
2022/05/21 01:17:08;;;;;;;3.78;2.40;;;14.70;99.30;;;;;;5030108;28;20144;-72
2022/05/21 01:20:04;;;;;;;5.18;2.70;;;14.80;99.10;;;;;;5028636;28;20030;-71
2022/05/21 01:22:39;;;;;;;4.07;2.50;;;14.70;98.60;;;;;;5029891;28;20050;-71
2022/05/21 01:25:05;;;;;;;6.13;2.90;;;14.60;98.50;;;;;;5029732;28;20406;-70
2022/05/21 01:27:31;;;;;;;5.78;2.45;;;14.60;98.20;;;;;;5030108;28;20041;-70
2022/05/21 01:29:59;;;;;;;7.22;2.80;;;14.60;98.30;;;;;;5030155;28;20485;-72
2022/05/21 01:32:25;;;;;;;5.40;2.75;;;14.50;98.40;;;;;;5031633;28;20030;-70
2022/05/21 01:34:51;;;;;;;4.10;2.10;;;14.40;98.40;;;;;;5033278;28;20044;-71
2022/05/21 01:37:17;;;;;;;7.57;2.83;;;14.40;98.60;;;;;;5033583;28;20029;-70
2022/05/21 01:39:43;;;;;;;3.00;2.10;;;14.50;98.60;;;;;;5033102;28;20058;-71
2022/05/21 01:42:09;;;;;;;4.15;2.60;;;14.40;98.60;;;;;;5033679;28;20039;-70
2022/05/21 01:44:37;;;;;;;5.55;2.72;;;14.50;98.50;;;;;;5033306;28;20029;-71
2022/05/21 01:47:07;;;;;;;5.25;2.58;;;14.50;98.60;;;;;;5033152;28;20493;-71
2022/05/21 01:49:34;;;;;;;4.55;2.50;;;14.50;98.60;;;;;;5033329;28;20033;-72
2022/05/21 01:52:01;;;;;;;5.85;2.63;;;14.50;98.70;;;;;;5032015;28;20041;-71
2022/05/21 01:54:27;;;;;;;2.45;1.95;;;14.40;98.70;;;;;;5032400;28;20337;-71
2022/05/21 01:56:52;;;;;;;3.95;2.47;;;14.40;98.80;;;;;;5033018;28;20261;-71
2022/05/21 01:59:18;;;;;;;5.75;2.90;;;14.40;98.80;;;;;;5033048;28;20034;-71
2022/05/21 02:01:43;;;;;;;4.88;2.72;;;14.50;98.80;;;;;;5032732;28;20045;-72
2022/05/21 02:04:09;;;;;;;6.72;2.47;;;14.50;98.70;;;;;;5031781;28;20036;-71
2022/05/21 02:06:34;;;;;;;3.90;2.70;;;14.40;98.50;;;;;;5033588;28;20097;-72
2022/05/21 02:09:00;;;;;;;4.50;2.50;;;14.40;98.60;;;;;;5032863;28;20044;-72
2022/05/21 02:11:26;;;;;;;4.07;2.55;;;14.40;98.50;;;;;;5032818;28;20383;-71
2022/05/21 02:13:51;;;;;;;5.00;2.60;;;14.30;98.60;;;;;;5032737;28;20037;-70
2022/05/21 02:16:26;;;;;;;4.05;3.13;;;14.30;98.60;;;;;;5032526;28;20132;-71
2022/05/21 02:18:51;;;;;;;5.50;3.08;;;14.30;98.60;;;;;;5032780;28;20029;-72
2022/05/21 02:21:30;;;;;;;7.18;2.95;;;14.30;98.60;;;;;;5033248;28;20037;-72
2022/05/21 02:23:56;;;;;;;8.63;3.55;;;14.20;98.60;;;;;;5032735;28;20025;-70
2022/05/21 02:26:22;;;;;;;9.43;4.00;;;14.30;98.70;;;;;;5032476;28;20060;-70
2022/05/21 02:28:48;;;;;;;8.88;4.13;;;14.20;98.80;;;;;;5032540;28;20033;-71
2022/05/21 02:31:26;;;;;;;7.82;4.38;;;14.20;98.90;;;;;;5032523;28;20040;-71
2022/05/21 02:33:51;;;;;;;5.10;3.50;;;14.10;99.10;;;;;;5032490;28;20029;-71
2022/05/21 02:36:17;;;;;;;8.93;3.90;;;14.20;99.20;;;;;;5033549;28;20014;-71
2022/05/21 02:44:49;;;;;;;6.78;3.92;;;14.20;99.20;;;;;;5032705;28;20032;-72
2022/05/21 02:47:15;;;;;;;9.43;4.63;;;14.20;99.40;;;;;;5030967;28;20029;-72
2022/05/21 02:49:40;;;;;;;6.38;4.20;;;14.10;99.40;;;;;;5032130;28;20056;-71
2022/05/21 02:52:06;;;;;;;8.27;4.55;;;14.20;99.40;;;;;;5031607;28;20026;-71
2022/05/21 02:54:31;;;;;;;7.70;3.83;;;14.20;99.30;;;;;;5031237;28;20245;-71
2022/05/21 02:56:57;;;;;;;7.97;4.10;;;14.20;99.50;;;;;;5031057;28;20040;-71
2022/05/21 02:59:23;;;;;;;9.35;4.05;;;14.30;99.40;;;;;;5032313;28;20029;-72
2022/05/21 03:01:51;;;;;;;6.70;4.38;;;14.30;99.40;;;;;;5031969;28;20047;-71
2022/05/21 03:04:17;;;;;;;7.25;4.82;;;14.20;99.50;;;;;;5030635;28;20040;-71
2022/05/21 03:06:42;;;;;;;9.98;5.28;;;13.90;99.90;;;;;;5032215;28;20025;-71
2022/05/21 03:11:52;;;;;;;13.25;5.00;;;14.10;99.90;;;;;;5031907;28;20092;-71
2022/05/21 03:14:21;;;;;;;14.60;5.13;;;14.10;99.80;;;;;;5031715;28;20037;-71
2022/05/21 03:16:47;;;;;;;10.00;5.45;;;14.10;99.80;;;;;;5030396;28;20029;-72
2022/05/21 03:19:12;;;;;;;7.82;5.22;;;14.10;99.70;;;;;;5031705;28;20033;-71
2022/05/21 03:21:44;;;;;;;8.95;5.35;;;13.80;99.90;;;;;;5030918;28;20080;-70
2022/05/21 03:24:10;;;;;;;9.20;5.38;;;13.90;99.90;;;;;;5030338;28;20033;-72
2022/05/21 03:26:36;;;;;;;8.95;5.00;;;14.00;99.80;;;;;;5031591;28;20037;-71
2022/05/21 03:29:01;;;;;;;11.02;5.72;;;13.90;99.60;;;;;;5031426;28;20283;-71
2022/05/21 03:31:39;;;;;;;9.07;4.75;;;14.00;99.50;;;;;;5031573;28;20018;-71
2022/05/21 03:34:05;;;;;;;7.90;4.60;;;13.90;99.50;;;;;;5031393;28;20056;-72
2022/05/21 03:36:31;;;;;;;11.30;5.20;;;14.00;99.30;;;;;;5031672;28;20427;-73
2022/05/21 03:38:57;;;;;;;9.05;5.03;;;14.00;99.30;;;;;;5031112;28;20374;-73
2022/05/21 03:41:32;;;;;;;9.73;4.90;;;14.00;99.10;;;;;;5031048;28;20033;-71
2022/05/21 03:43:58;;;;;;;9.90;4.75;;;14.00;99.00;;;;;;5031399;28;20034;-72
2022/05/21 03:46:24;;;;;;;13.52;5.15;;;13.80;99.00;;;;;;5031058;28;20440;-73
2022/05/21 03:48:50;;;;;;;9.00;4.93;;;13.80;98.90;;;;;;5031000;28;20051;-70
2022/05/21 03:51:16;;;;;;;15.02;6.13;;;13.80;98.90;;;;;;5031535;28;20033;-72
2022/05/21 03:53:42;;;;;;;14.93;5.82;;;13.70;98.90;;;;;;5030278;28;20112;-71
2022/05/21 03:56:08;;;;;;;13.90;6.20;;;13.70;99.00;;;;;;5030846;28;20676;-71
2022/05/21 03:58:34;;;;;;;9.65;6.30;;;13.70;98.80;;;;;;5030909;28;20477;-71
2022/05/21 04:01:00;;;;;;;12.52;6.20;;;13.70;98.90;;;;;;5030643;28;20184;-70
2022/05/21 04:03:25;;;;;;;11.85;5.78;;;13.80;98.80;;;;;;5031253;28;20104;-71
2022/05/21 04:05:55;;;;;;;9.90;5.93;;;13.90;98.70;;;;;;5029957;28;20384;-72
2022/05/21 04:08:21;;;;;;;11.00;6.13;;;13.90;98.40;;;;;;5030832;28;20030;-71
2022/05/21 04:10:48;;;;;;;12.23;6.10;;;13.80;98.60;;;;;;5030496;28;20025;-70
2022/05/21 04:13:14;;;;;;;11.82;6.75;;;13.90;98.50;;;;;;5029356;28;20033;-71
2022/05/21 04:15:39;;;;;;;13.20;5.90;;;13.80;98.40;;;;;;5030960;28;20500;-71
2022/05/21 04:18:05;;;;;;;13.02;6.50;;;13.90;98.40;;;;;;5030588;28;20050;-71
2022/05/21 04:20:31;;;;;;;11.82;5.78;;;14.00;98.30;;;;;;5030355;28;20037;-71
2022/05/21 04:22:56;;;;;;;14.25;6.45;;;14.00;98.10;;;;;;5030321;28;20034;-71
2022/05/21 04:25:22;;;;;;;12.82;6.78;;;14.00;98.10;;;;;;5030455;28;20025;-71
2022/05/21 04:27:48;;;;;;;12.55;6.38;;;14.10;98.20;;;;;;5030424;28;20466;-72
2022/05/21 04:30:19;;;;;;;8.95;6.00;;;14.20;98.20;;;;;;5030630;28;20037;-72
2022/05/21 04:32:45;;;;;;;16.38;7.18;;;14.20;98.10;;;;;;5030415;28;20347;-73
2022/05/21 04:35:12;;;;;;;13.90;6.90;;;14.30;98.00;;;;;;5030655;28;20038;-72
2022/05/21 04:37:39;;;;;;;12.43;7.32;;;14.30;97.90;;;;;;5030554;28;20037;-70
2022/05/21 04:40:08;;;;;;;14.48;7.88;;;14.30;97.90;;;;;;5028904;28;20106;-71
2022/05/21 04:42:33;;;;;;;16.98;7.88;;;14.30;98.10;;;;;;5030616;28;20112;-72
2022/05/21 04:44:59;;;;;;;14.35;7.93;;;14.30;97.90;;;;;;5030624;28;20117;-70
2022/05/21 04:47:25;;;;;;;18.20;8.23;;;14.40;98.00;;;;;;5030616;28;20036;-72
2022/05/21 04:49:51;;;;;;;15.20;9.15;;;14.30;98.00;;;;;;5030326;28;20022;-71
2022/05/21 04:52:17;;;;;;;16.35;9.13;;;14.40;98.10;;;;;;5029882;28;20029;-70
2022/05/21 04:54:43;;;;;;;21.40;9.65;;;14.40;98.10;;;;;;5030092;28;20048;-70
2022/05/21 04:57:08;;;;;;;15.00;9.88;;;14.50;98.10;;;;;;5030613;28;20033;-71
2022/05/21 04:59:34;;;;;;;17.45;9.80;;;14.30;98.10;;;;;;5030020;28;20435;-71
2022/05/21 05:02:03;;;;;;;16.50;10.05;;;14.40;98.10;;;;;;5030032;28;20513;-72
2022/05/21 05:04:28;;;;;;;20.60;10.15;;;14.50;98.10;;;;;;5030235;28;20030;-71
2022/05/21 05:06:54;;;;;;;13.45;9.30;;;14.50;98.00;;;;;;5033135;28;20075;-72
2022/05/21 05:12:42;;;;;;;18.25;10.32;;;14.60;98.00;;;;;;5033589;28;20465;-71
2022/05/21 05:15:08;;;;;;;16.05;10.77;;;14.60;97.90;;;;;;5033090;28;20139;-70
2022/05/21 05:17:33;;;;;;;16.35;9.52;;;14.50;98.10;;;;;;5034020;28;20044;-71
2022/05/21 05:20:00;;;;;;;21.42;11.07;;;14.60;98.10;;;;;;5033934;28;20033;-72
2022/05/21 05:22:26;;;;;;;18.30;11.32;;;14.50;98.10;;;;;;5033818;28;20091;-72
2022/05/21 05:24:51;;;;;;;20.05;10.55;;;14.60;98.20;;;;;;5032522;28;20029;-72
2022/05/21 05:27:17;;;;;;;19.67;11.57;;;14.60;98.30;;;;;;5034122;28;20029;-71
2022/05/21 05:29:43;;;;;;;19.67;11.75;;;14.60;98.30;;;;;;5033685;28;20029;-71
2022/05/21 05:32:09;;;;;;;21.92;11.73;;;14.70;98.30;;;;;;5033566;28;20044;-71
2022/05/21 05:34:34;;;;;;;20.27;13.23;;;14.80;98.20;;;;;;5033754;28;20080;-71
2022/05/21 05:37:01;;;;;;;18.42;12.60;;;14.70;98.30;;;;;;5033507;28;20100;-71
2022/05/21 05:39:27;;;;;;;21.88;14.35;;;14.80;98.30;;;;;;5032492;28;20037;-70
2022/05/21 05:41:53;;;;;;;25.35;14.70;;;14.80;98.10;;;;;;5033422;28;20516;-70
2022/05/21 05:44:20;;;;;;;23.83;16.10;;;14.80;98.30;;;;;;5032130;28;20363;-72
2022/05/21 05:46:46;;;;;;;22.25;15.85;;;14.80;98.40;;;;;;5033205;28;20095;-72
2022/05/21 05:49:12;;;;;;;24.00;16.08;;;14.80;98.40;;;;;;5032028;28;20053;-72
2022/05/21 05:51:38;;;;;;;22.17;15.68;;;14.70;98.40;;;;;;5034231;28;20106;-75
2022/05/21 05:54:04;;;;;;;26.08;16.30;;;14.70;98.40;;;;;;5033093;28;20534;-73
2022/05/21 05:56:29;;;;;;;25.80;17.45;;;14.80;98.30;;;;;;5033295;28;20037;-74
2022/05/21 06:01:39;;;;;;;26.73;17.92;;;14.90;98.20;;;;;;5033050;28;20040;-74
2022/05/21 06:04:04;;;;;;;24.52;16.95;;;14.90;98.30;;;;;;5033283;28;20037;-72
2022/05/21 06:06:31;;;;;;;25.95;18.10;;;15.00;98.20;;;;;;5030644;28;20037;-76
2022/05/21 06:08:57;;;;;;;26.05;18.23;;;15.10;98.00;;;;;;5032425;28;20045;-75
2022/05/21 06:11:23;;;;;;;24.98;17.35;;;14.90;98.00;;;;;;5033291;28;20103;-75
2022/05/21 06:13:49;;;;;;;20.50;15.50;;;15.00;98.20;;;;;;5032490;28;20433;-74
2022/05/21 06:16:15;;;;;;;27.33;17.83;;;15.00;98.10;;;;;;5031626;28;20045;-74
2022/05/21 06:18:41;;;;;;;24.83;15.80;;;15.10;98.00;;;;;;5031457;28;20120;-75
2022/05/21 06:21:07;;;;;;;26.60;16.95;;;15.00;98.10;;;;;;5032014;28;20026;-75
2022/05/21 06:23:34;;;;;;;27.42;17.25;;;14.90;98.20;;;;;;5031795;28;20250;-74
2022/05/21 06:26:00;;;;;;;30.25;15.15;;;14.80;98.60;;;;;;5031720;28;20036;-77
2022/05/21 06:28:29;;;;;;;25.23;17.00;;;14.90;98.50;;;;;;5032901;28;20022;-75
2022/05/21 06:30:55;;;;;;;24.42;16.20;;;14.90;98.50;;;;;;5032780;28;20371;-76
2022/05/21 06:33:28;;;;;;;26.35;16.15;;;15.00;98.50;;;;;;5033173;28;20159;-76
2022/05/21 06:36:12;;;;;;;23.10;15.38;;;15.10;98.50;;;;;;5031963;28;20036;-73
2022/05/21 06:38:39;;;;;;;29.23;17.08;;;15.10;98.70;;;;;;5032584;28;20493;-74
2022/05/21 06:41:05;;;;;;;24.05;15.32;;;15.20;98.50;;;;;;5032057;28;20073;-72
2022/05/21 06:43:31;;;;;;;29.13;16.05;;;15.20;98.30;;;;;;5032392;28;20090;-73
2022/05/21 06:45:57;;;;;;;27.50;15.45;;;15.20;98.30;;;;;;5032398;28;20104;-72
2022/05/21 06:48:22;;;;;;;27.27;14.68;;;15.30;98.40;;;;;;5032772;28;20036;-74
2022/05/21 06:50:48;;;;;;;24.48;14.98;;;15.30;98.40;;;;;;5032398;28;20623;-73
2022/05/21 06:53:14;;;;;;;23.40;14.55;;;15.40;98.30;;;;;;5032423;28;20040;-72
2022/05/21 06:55:40;;;;;;;23.95;14.05;;;15.40;98.20;;;;;;5032188;28;20033;-71
2022/05/21 06:58:06;;;;;;;23.45;13.75;;;15.40;98.10;;;;;;5027257;28;20034;-71
2022/05/21 07:00:32;;;;;;;18.65;13.20;;;15.50;98.10;;;;;;5012566;28;20459;-71
2022/05/21 07:02:58;;;;;;;22.05;14.10;;;15.40;98.30;;;;;;5012513;28;20041;-71
2022/05/21 07:08:26;;;;;;;19.67;12.43;;;15.50;98.10;;;;;;5031352;28;20044;-71
2022/05/21 07:10:52;;;;;;;22.52;11.90;;;15.50;98.20;;;;;;5032102;28;20037;-71
2022/05/21 07:13:19;;;;;;;22.17;12.00;;;15.50;98.30;;;;;;5031077;28;20036;-71
2022/05/21 07:15:47;;;;;;;20.15;11.00;;;15.50;98.10;;;;;;5032189;28;20029;-71
2022/05/21 07:18:16;;;;;;;23.23;11.27;;;15.60;97.90;;;;;;5032468;28;20104;-72
2022/05/21 07:20:42;;;;;;;18.15;9.75;;;15.70;98.00;;;;;;5031820;28;20055;-72
2022/05/21 07:23:07;;;;;;;15.85;9.15;;;15.60;98.10;;;;;;5032190;28;20143;-72
2022/05/21 07:25:33;;;;;;;17.65;9.23;;;15.70;97.80;;;;;;5031766;28;20056;-71
2022/05/21 07:28:00;;;;;;;20.58;9.07;;;15.70;97.90;;;;;;5031860;28;20025;-72
2022/05/21 07:30:26;;;;;;;20.08;9.23;;;15.80;97.70;;;;;;5032011;28;20025;-73
2022/05/21 07:32:55;;;;;;;18.92;9.02;;;15.70;97.90;;;;;;5032479;28;20044;-85
2022/05/21 07:35:21;;;;;;;18.50;8.25;;;15.70;97.60;;;;;;5030919;28;20410;-79
2022/05/21 07:37:47;;;;;;;15.50;7.53;;;15.80;97.40;;;;;;5031493;28;20394;-72
2022/05/21 07:40:15;;;;;;;20.88;8.85;;;15.80;97.30;;;;;;5031040;28;20482;-74
2022/05/21 07:42:41;;;;;;;20.42;10.27;;;15.80;97.20;;;;;;5031183;28;20128;-72
2022/05/21 07:45:09;;;;;;;27.25;9.30;;;15.90;97.10;;;;;;5031572;28;20029;-73
2022/05/21 07:47:35;;;;;;;16.67;6.85;;;16.00;97.00;;;;;;5031224;28;20069;-74
2022/05/21 07:50:02;;;;;;;16.33;8.10;;;16.00;97.10;;;;;;5031082;28;20030;-72
2022/05/21 07:52:29;;;;;;;20.02;6.78;;;16.10;96.80;;;;;;5029730;28;20079;-73
2022/05/21 07:54:55;;;;;;;17.33;7.93;;;16.30;96.60;;;;;;5029875;28;20036;-72
2022/05/21 07:57:21;;;;;;;17.73;6.55;;;16.40;96.60;;;;;;5030202;28;20025;-72
2022/05/21 07:59:46;;;;;;;12.90;6.18;;;16.50;96.20;;;;;;5031122;28;20040;-72
2022/05/21 08:02:15;;;;;;;12.00;6.05;;;16.70;96.10;;;;;;5030868;28;20044;-74
2022/05/21 08:04:42;;;;;;;13.82;5.95;;;16.80;96.00;;;;;;5030784;28;20098;-73
2022/05/21 08:07:08;;;;;;;12.48;5.60;;;16.80;95.70;;;;;;5029517;28;20040;-73
2022/05/21 08:09:34;;;;;;;12.45;5.82;;;17.00;95.50;;;;;;5031178;28;20581;-73
2022/05/21 08:11:59;;;;;;;8.98;5.40;;;17.10;95.10;;;;;;5030961;28;20109;-72
2022/05/21 08:14:25;;;;;;;14.60;5.43;;;17.00;94.80;;;;;;5030625;28;20025;-73
2022/05/21 08:16:51;;;;;;;11.65;5.43;;;17.20;95.00;;;;;;5030562;28;20086;-73
2022/05/21 08:19:17;;;;;;;10.43;4.45;;;17.00;94.80;;;;;;5030693;28;20359;-73
2022/05/21 08:21:43;;;;;;;10.85;4.95;;;17.50;94.70;;;;;;5030282;28;20029;-74
2022/05/21 08:26:56;;;;;;;10.10;4.70;;;18.10;93.00;;;;;;5030449;28;20086;-73
2022/05/21 08:29:28;;;;;;;20.70;5.00;;;17.90;93.30;;;;;;5029556;28;20067;-74
2022/05/21 08:31:54;;;;;;;13.18;4.65;;;18.00;93.60;;;;;;5030390;28;20463;-73
2022/05/21 08:34:20;;;;;;;10.00;4.22;;;18.20;92.90;;;;;;5030286;28;20152;-74
2022/05/21 08:36:47;;;;;;;13.23;4.57;;;18.20;92.90;;;;;;5029147;28;20463;-73
2022/05/21 08:39:14;;;;;;;12.95;4.57;;;18.00;93.20;;;;;;5029531;28;20310;-75
2022/05/21 08:41:56;;;;;;;9.60;4.40;;;17.90;93.30;;;;;;5028605;28;20042;-76
2022/05/21 08:44:46;;;;;;;9.43;4.07;;;18.00;93.10;;;;;;5030282;28;20033;-75
2022/05/21 08:47:29;;;;;;;10.90;4.15;;;17.90;93.20;;;;;;5030138;28;20025;-78
2022/05/21 08:50:08;;;;;;;17.20;4.35;;;18.10;93.50;;;;;;5030152;28;20029;-79
2022/05/21 08:52:42;;;;;;;12.88;4.10;;;17.90;92.60;;;;;;5029947;28;20121;-71
2022/05/21 08:55:11;;;;;;;9.95;3.83;;;18.10;93.70;;;;;;5030011;28;20060;-77
2022/05/21 08:57:54;;;;;;;8.27;4.00;;;18.30;92.10;;;;;;5030417;28;20096;-74
2022/05/21 09:00:30;;;;;;;7.75;3.90;;;18.20;92.40;;;;;;5030004;28;20103;-74
2022/05/21 09:02:56;;;;;;;12.43;3.28;;;18.40;91.80;;;;;;5029966;28;20034;-74
2022/05/21 09:05:23;;;;;;;11.27;3.53;;;18.40;91.80;;;;;;5028987;28;20022;-73
2022/05/21 09:08:11;;;;;;;11.63;3.93;;;18.80;91.80;;;;;;5030146;28;20072;-74
2022/05/21 09:11:01;;;;;;;10.93;3.10;;;19.00;91.00;;;;;;5028731;28;20321;-75
2022/05/21 09:13:48;;;;;;;12.50;3.78;;;19.30;90.40;;;;;;5029894;28;20037;-74
2022/05/21 09:19:05;;;;;;;14.10;4.10;;;19.20;90.50;;;;;;5030170;28;20417;-77
2022/05/21 09:21:37;;;;;;;11.40;3.53;;;18.90;90.70;;;;;;5028998;28;20159;-76
2022/05/21 09:24:05;;;;;;;11.32;3.60;;;18.70;90.90;;;;;;5029864;28;20068;-77
2022/05/21 09:26:51;;;;;;;10.40;3.38;;;19.60;90.80;;;;;;5029880;28;20088;-75
2022/05/21 09:29:26;;;;;;;12.50;3.33;;;20.10;88.60;;;;;;5029963;28;20029;-76
2022/05/21 09:31:55;;;;;;;8.63;3.25;;;20.10;88.40;;;;;;5029573;28;20506;-71
2022/05/21 09:34:31;;;;;;;22.05;3.60;;;20.50;87.00;;;;;;5029967;28;20103;-72
2022/05/21 09:36:58;;;;;;;9.07;2.72;;;20.90;85.30;;;;;;5028458;28;20071;-73
2022/05/21 09:39:39;;;;;;;10.60;2.42;;;21.00;86.10;;;;;;5030020;28;20033;-73
2022/05/21 09:45:22;;;;;;;;;;;21.70;84.00;;;;;;5030338;28;20033;-73
2022/05/21 09:47:49;;;;;;;8.73;2.70;;;21.90;84.60;;;;;;5028698;28;19932;-71
2022/05/21 09:50:21;;;;;;;11.80;3.00;;;21.70;81.90;;;;;;5029630;28;20025;-71
2022/05/21 09:52:49;;;;;;;10.80;3.13;;;21.50;82.70;;;;;;5031385;28;20116;-72
2022/05/21 09:55:19;;;;;;;;;;;20.80;84.50;;;;;;5033902;28;20049;-74
2022/05/21 09:57:45;;;;;;;9.55;2.75;;;20.60;84.00;;;;;;5033170;28;20000;-77
2022/05/21 10:00:31;;;;;;;12.80;3.28;;;20.00;84.60;;;;;;5033439;28;20638;-73
2022/05/21 10:03:03;;;;;;;12.65;2.67;;;19.40;87.10;;;;;;5033134;28;20064;-73
2022/05/21 10:05:50;;;;;;;9.65;2.88;;;19.30;88.90;;;;;;5033090;28;20040;-74
2022/05/21 10:11:24;;;;;;;13.43;3.70;;;19.20;89.70;;;;;;5033012;28;20076;-73
2022/05/21 10:13:59;;;;;;;10.35;5.20;;;19.40;88.70;;;;;;5031468;28;20040;-74
2022/05/21 10:16:46;;;;;;;12.85;3.67;;;19.90;89.30;;;;;;5032666;28;20036;-75
2022/05/21 10:19:21;;;;;;;;;;;20.00;88.60;;;;;;5032127;28;20474;-74
2022/05/21 10:21:56;;;;;;;10.93;3.38;;;20.30;87.90;;;;;;5032499;28;19909;-72
2022/05/21 10:24:43;;;;;;;12.25;3.47;;;20.30;87.50;;;;;;5032996;28;20029;-77
2022/05/21 10:27:45;;;;;;;7.38;2.13;;;20.20;87.20;;;;;;5024959;28;20056;-72
2022/05/21 10:30:26;;;;;;;12.32;2.85;;;20.10;87.00;;;;;;5031597;28;20463;-71
2022/05/21 10:33:10;;;;;;;10.75;2.22;;;19.40;86.10;;;;;;5032572;28;20125;-72
2022/05/21 10:36:09;;;;;;;13.68;5.30;;;18.90;87.60;;;;;;5031300;28;20049;-75
2022/05/21 10:39:04;;;;;;;11.60;2.50;;;19.30;87.70;;;;;;5032353;28;20463;-74
2022/05/21 10:41:30;;;;;;;12.48;2.70;;;19.30;87.10;;;;;;5032164;28;20045;-73
2022/05/21 10:44:22;;;;;;;12.55;3.40;;;19.30;87.70;;;;;;5032340;28;20119;-73
2022/05/21 10:47:03;;;;;;;6.18;2.28;;;19.20;87.30;;;;;;5032226;28;20050;-74
2022/05/21 10:50:08;;;;;;;11.65;2.03;;;18.80;88.30;;;;;;5032100;28;20459;-73
2022/05/21 10:52:39;;;;;;;6.95;2.13;;;19.10;88.50;;;;;;5030694;28;20041;-74
2022/05/21 10:55:27;;;;;;;9.68;2.28;;;19.20;87.10;;;;;;5032327;28;20034;-75
2022/05/21 10:58:26;;;;;;;5.75;2.10;;;19.30;86.40;;;;;;5032001;28;20033;-72
2022/05/21 11:01:39;;;;;;;7.90;1.80;;;19.00;86.20;;;;;;5031867;28;20036;-73
2022/05/21 11:04:27;;;;;;;6.90;1.80;;;19.10;86.70;;;;;;5031940;28;20022;-72
2022/05/21 11:07:14;;;;;;;16.70;3.22;;;19.20;86.00;;;;;;5030864;28;20025;-74
2022/05/21 11:09:46;;;;;;;7.10;2.40;;;19.30;86.10;;;;;;5031671;28;20112;-72
2022/05/21 11:12:18;;;;;;;7.28;2.05;;;19.40;85.30;;;;;;5030945;28;20028;-74
2022/05/21 11:15:08;;;;;;;7.47;2.15;;;19.40;85.30;;;;;;5031625;28;20524;-74
2022/05/21 11:17:54;;;;;;;6.85;2.33;;;19.10;86.40;;;;;;5031608;28;20111;-75
2022/05/21 11:20:29;;;;;;;7.82;2.58;;;19.00;90.20;;;;;;5031435;28;20030;-75
2022/05/21 11:23:10;;;;;;;10.90;2.85;;;19.00;91.10;;;;;;5030918;28;20463;-75
2022/05/21 11:25:55;;;;;;;9.23;2.53;;;18.90;92.10;;;;;;5029900;28;20353;-75
2022/05/21 11:28:54;;;;;;;8.65;2.33;;;18.30;92.50;;;;;;5031328;28;20382;-75
2022/05/21 11:37:21;;;;;;;9.05;2.85;;;18.10;93.50;;;;;;5031568;28;20114;-74
2022/05/21 11:39:51;;;;;;;10.50;2.47;;;18.10;93.20;;;;;;5030848;28;20484;-76
2022/05/21 11:42:22;;;;;;;8.93;2.60;;;18.10;93.30;;;;;;5031414;28;20032;-74
2022/05/21 11:45:08;;;;;;;9.15;2.45;;;18.00;93.70;;;;;;5031316;28;20068;-75
2022/05/21 11:47:54;;;;;;;12.65;2.75;;;18.00;94.10;;;;;;5030152;28;20033;-74
2022/05/21 11:50:26;;;;;;;15.85;2.85;;;17.90;95.40;;;;;;5029684;28;20419;-74
2022/05/21 11:52:54;;;;;;;18.08;4.25;;;17.90;95.30;;;;;;5030807;28;20036;-75
2022/05/21 11:55:24;;;;;;;6.13;2.65;;;17.50;96.90;;;;;;5030315;28;20025;-73
2022/05/21 11:57:53;;;;;;;7.82;2.28;;;17.50;97.50;;;;;;5030450;28;20060;-73
2022/05/21 12:00:19;;;;;;;11.48;3.13;;;17.40;97.90;;;;;;5031125;28;20104;-74
2022/05/21 12:02:53;;;;;;;15.52;3.92;;;17.40;97.30;;;;;;5030954;28;20116;-75
2022/05/21 12:05:41;;;;;;;10.05;2.72;;;17.60;98.50;;;;;;5030298;28;20037;-76
2022/05/21 12:08:13;;;;;;;9.20;3.03;;;17.70;97.60;;;;;;5030411;28;20021;-76
2022/05/21 12:11:11;;;;;;;8.68;2.63;;;17.70;97.50;;;;;;5030362;28;20029;-75
2022/05/21 12:13:39;;;;;;;;;;;17.70;97.50;;;;;;5009505;28;20055;-75
2022/05/21 12:16:16;;;;;;;18.45;7.85;;;17.90;97.80;;;;;;5029341;28;20243;-74
2022/05/21 12:18:48;;;;;;;22.77;12.45;;;18.00;98.50;;;;;;5029342;28;20048;-75
2022/05/21 12:21:36;;;;;;;37.25;18.00;;;18.20;98.50;;;;;;5031011;28;20143;-76
2022/05/21 12:24:23;;;;;;;11.50;3.55;;;18.40;97.30;;;;;;5016998;28;20095;-75
2022/05/21 12:27:05;;;;;;;11.55;3.33;;;18.40;96.80;;;;;;5029413;28;20044;-75
2022/05/21 12:29:40;;;;;;;14.30;3.38;;;18.60;97.00;;;;;;5031122;28;20057;-75
2022/05/21 12:32:14;;;;;;;14.73;3.53;;;18.80;97.60;;;;;;5030805;28;20060;-75
2022/05/21 12:34:48;;;;;;;8.85;2.50;;;18.90;96.40;;;;;;5031125;28;20025;-74
2022/05/21 12:37:18;;;;;;;15.38;4.72;;;18.70;95.40;;;;;;5029059;28;20033;-74
2022/05/21 12:40:01;;;;;;;7.13;2.33;;;18.90;95.50;;;;;;5029865;28;20029;-75
2022/05/21 12:42:44;;;;;;;8.93;2.22;;;18.90;94.90;;;;;;5030250;28;20098;-75
2022/05/21 12:45:12;;;;;;;7.85;2.30;;;18.90;93.90;;;;;;5029105;28;20132;-74
2022/05/21 12:47:41;;;;;;;12.20;2.20;;;18.90;93.70;;;;;;5030002;28;20393;-74
2022/05/21 12:50:14;;;;;;;7.47;1.70;;;19.10;93.80;;;;;;5029274;28;20041;-76
2022/05/21 12:52:49;;;;;;;7.45;2.08;;;19.30;92.40;;;;;;5029983;28;20100;-73
2022/05/21 12:55:25;;;;;;;8.43;1.88;;;19.30;91.40;;;;;;5030254;28;20077;-75
2022/05/21 12:57:55;;;;;;;5.55;1.60;;;19.20;90.70;;;;;;5029815;28;20018;-75
2022/05/21 13:00:24;;;;;;;7.35;1.23;;;19.20;90.60;;;;;;5030343;28;20331;-74
2022/05/21 13:02:53;;;;;;;8.32;1.85;;;19.30;90.20;;;;;;5028885;28;20056;-74
2022/05/21 13:05:26;;;;;;;6.75;2.30;;;19.30;89.30;;;;;;5028796;28;20060;-75
2022/05/21 13:07:53;;;;;;;8.88;2.30;;;19.30;90.20;;;;;;5029858;28;20072;-74
2022/05/21 13:10:27;;;;;;;7.78;1.77;;;19.30;89.70;;;;;;5028634;28;20033;-72
2022/05/21 13:13:00;;;;;;;8.52;2.95;;;19.00;90.00;;;;;;5026544;28;20033;-73
2022/05/21 13:15:33;;;;;;;11.75;3.22;;;19.10;90.40;;;;;;5030316;28;20462;-74
2022/05/21 13:18:05;;;;;;;11.75;2.95;;;19.00;90.60;;;;;;5029984;28;20037;-73
2022/05/21 13:20:57;;;;;;;9.68;3.42;;;19.10;90.60;;;;;;5029967;28;20034;-74
2022/05/21 13:24:14;;;;;;;12.00;2.70;;;19.10;90.60;;;;;;5029755;28;20021;-74
2022/05/21 13:26:40;;;;;;;9.93;2.83;;;19.10;90.30;;;;;;5021331;28;20029;-73
2022/05/21 13:29:17;;;;;;;7.90;2.25;;;18.90;90.20;;;;;;5033819;28;20195;-73
2022/05/21 13:31:44;;;;;;;13.00;2.53;;;18.80;90.20;;;;;;5033800;28;20029;-75
2022/05/21 13:34:17;;;;;;;15.13;2.92;;;18.80;90.10;;;;;;5033834;28;20462;-75
2022/05/21 13:36:49;;;;;;;9.02;2.95;;;18.80;90.00;;;;;;5033602;28;20366;-77